Terminal Aerodrome Forecast
Issued by NWS

Home | Current Version | Previous Version | Text Only | Print | Product List | Glossary On
Versions: 1 2 3 4 5 6 7 8 9 10 11 12 13 14 15 16 17 18 19
000
FTUS43 KSGF 220520
TAFJLN
TAF
KJLN 220520Z 2206/2306 VRB05KT P6SM VCSH OVC012
     FM220900 02012G21KT P6SM SHRA OVC003
     FM221100 02012G24KT P6SM VCSH OVC008
     FM221700 01011G22KT P6SM VCSH OVC010
     FM222200 01008KT P6SM OVC035=

USA.gov is the U.S. government's official web portal to all federal, state and local government web resources and services.